Terminal Aerodrome Forecast
Issued by NWS

Home | Current Version | Previous Version | Text Only | Print | Product List | Glossary On
Versions: 1 2 3 4 5 6 7 8 9 10 11 12 13 14 15 16
803
FTUS43 KGRR 282348
TAFAZO
TAF
KAZO 282348Z 2900/2924 18013KT 6SM -SHRA OVC060
     FM290300 19013G23KT P6SM BKN050 WS020/21045KT
      TEMPO 2903/2906 3SM -TSRA BR OVC040CB
     FM290600 20016G26KT 3SM -SHRA BR VCTS BKN050CB WS020/22045KT
     FM291200 23015G25KT P6SM BKN040
     FM291600 23015G25KT P6SM VCTS BKN040CB=

USA.gov is the U.S. government's official web portal to all federal, state and local government web resources and services.